Windfall, Indiana
Current Conditions -  °F | °C
As of 7:55 AM on Monday 20 Oct 2014 (Local Time) from KOKK Reporting Station
Overcast Overcast  
Wind Chill: 10°   Ceiling: 7000
Heat Index: 10°   Visibility: 10mi
Dew Point:   Wind: 10mph
Humidity: 76%   Direction: 200°SSW
Pressure: 29.89"   Gusts: NA
Location:  40.36°N, 85.96°W
Report Text: KOKK 201155Z AUTO 20009KT 10SM OVC070 10/06 A2989 RMK AO1 10110 20090 57017
Loading
Personal Weather Stations






























Interactive Weather Map
Tropical Storm Tracking
New forecast layout! Learn more

10-Day Weather Forecast

Advertisements
Track Severe Weather on mobile